• Join FlightAware (Why Join?)
  • Login
  • US Flag 
11:15PM EST


 

Airport Tracker/Info


-or-


 

Live Flight TrackerFlight Track Log ✈ AFR1709 ✈ 06-May-2012 ✈ EDDS / STR - LFPG / CDG

Flight Track Log - Related Links

Times and Time Zones

All times are in EDT time to prevent confusion due to time zone crossing. See the AFR1709 flight status page for this flight to view local times or setup timezone preferences in your user account.

Time Position Orientation Groundspeed Altitude Reporting Facility
EDT Latitude Longitude Course Direction KTS MPH feet Rate Location/Type
07:28AM 48.7974 7.7082 276° West  Level Estimated
07:29AM 48.8036 7.6105 276° West  Level Estimated
07:30AM 48.8098 7.5128 275° West  Level Estimated
07:31AM 48.8158 7.4151 275° West  Level Estimated
07:32AM 48.8218 7.3174 275° West  Level Estimated
07:33AM 48.8277 7.2196 275° West  Level Estimated
07:34AM 48.8336 7.1218 275° West  Level Estimated
07:35AM 48.8393 7.0240 275° West  Level Estimated
07:36AM 48.8450 6.9262 275° West  Level Estimated
07:37AM 48.8506 6.8283 275° West  Level Estimated
07:38AM 48.8560 6.7305 275° West  Level Estimated
07:39AM 48.8615 6.6325 275° West  Level Estimated
07:40AM 48.8668 6.5346 275° West  Level Estimated
07:41AM 48.8720 6.4367 275° West  Level Estimated
07:42AM 48.8772 6.3387 275° West  Level Estimated
07:43AM 48.8823 6.2407 274° West  Level Estimated
07:44AM 48.8873 6.1427 274° West  Level Estimated
07:45AM 48.8922 6.0447 274° West  Level Estimated
07:46AM 48.8970 5.9481 274° West  Level Estimated
07:47AM 48.9016 5.8515 274° West  Level Estimated
07:48AM 48.9062 5.7548 274° West  Level Estimated
07:49AM 48.9108 5.6582 274° West  Level Estimated
07:50AM 48.9152 5.5615 274° West  Level Estimated
07:51AM 48.9196 5.4648 274° West  Level Estimated
07:52AM 48.9238 5.3681 274° West  Level Estimated
07:53AM 48.9280 5.2713 274° West  Level Estimated
07:54AM 48.9322 5.1746 274° West  Level Estimated
07:55AM 48.9362 5.0778 274° West  Level Estimated
07:56AM 48.9402 4.9810 274° West  Level Estimated
07:57AM 48.9440 4.8842 273° West  Level Estimated
07:58AM 48.9478 4.7874 273° West  Level Estimated
07:59AM 48.9515 4.6906 273° West  Level Estimated
08:00AM 48.9552 4.5937 273° West  Level Estimated
08:01AM 48.9587 4.4969 273° West  Level Estimated
08:02AM 48.9622 4.4000 273° West  Level Estimated
08:03AM 48.9656 4.3031 273° West  Level Estimated
08:04AM 48.9689 4.2062 273° West  Level Estimated
08:05AM 48.9721 4.1093 273° West  Level Estimated
08:06AM 48.9752 4.0124 273° West  Level Estimated
08:07AM 48.9783 3.9155 273° West  Level Estimated
08:08AM 48.9813 3.8185 273° West  Level Estimated
08:09AM 48.9842 3.7216 273° West  Level Estimated
08:10AM 48.9870 3.6246 273° West  Level Estimated
08:11AM 48.9897 3.5276 272° West  Level Estimated
08:12AM 48.9924 3.4306 272° West  Level Estimated
08:13AM 48.9950 3.3336 272° West  Level Estimated
08:14AM 48.9975 3.2366 272° West  Level Estimated
08:15AM 48.9999 3.1396 272° West  Level Estimated
08:16AM 49.0023 3.0366 272° West  Level Estimated
08:17AM 49.0047 2.9336 272° West  Level Estimated
08:18AM 49.0070 2.8306 272° West  Level Estimated
08:19AM 49.0092 2.7275 272° West  Level Estimated
08:20AM 49.0113 2.6245 272° West  Level Estimated
08:21AM 49.0133 2.5230 92° East  Level Estimated
08:22AM 49.0113 2.6245 272° West  Level Estimated
08:23AM 49.0133 2.5230 92° East  Level Estimated
08:24AM 49.0113 2.6245 272° West  Level Estimated
08:25AM 49.0133 2.5230 92° East  Level Estimated
08:26AM 49.0113 2.6245 272° West  Level Estimated
08:27AM 49.0133 2.5230 92° East  Level Estimated
08:28AM 49.0113 2.6245 272° West  Level Estimated
08:29AM 49.0133 2.5230 92° East  Level Estimated
08:30AM 49.0113 2.6245 272° West  Level Estimated
08:31AM 49.0133 2.5230 272° West  Level Estimated